<?xml version="1.0" encoding="UTF-8" standalone="no" ?>
<gpx xmlns="http://www.topografix.com/GPX/1/1" xmlns:xsi="http://www.w3.org/2001/XMLSchema-instance" xsi:schemaLocation="http://www.topografix.com/GPX/1/1 http://www.topografix.com/GPX/1/1/gpx.xsd" version="1.1" creator="VisuGPX - https://www.visugpx.com">
  <metadata>
    <name>Randonnée des anciens BP sur la vallée du Montient</name>
    <desc><![CDATA[Randonnée des anciens BP du 15 mars 2019 sur la vallée du Montient.]]></desc>
  </metadata>
  <trk>
    <name><![CDATA[9618215-La vallée du Montient]]></name>
    <trkseg>
      <trkpt lat="49.02871" lon="1.85274">
        <ele>48</ele>
        <time>2019-03-04T10:35:50Z</time>
      </trkpt>
      <trkpt lat="49.02847" lon="1.85238">
        <ele>50</ele>
        <time>2019-03-04T10:36:50Z</time>
      </trkpt>
      <trkpt lat="49.02838" lon="1.85182">
        <ele>53</ele>
        <time>2019-03-04T10:37:50Z</time>
      </trkpt>
      <trkpt lat="49.02861" lon="1.85163">
        <ele>51</ele>
        <time>2019-03-04T10:38:50Z</time>
      </trkpt>
      <trkpt lat="49.02878" lon="1.85116">
        <ele>52</ele>
        <time>2019-03-04T10:39:50Z</time>
      </trkpt>
      <trkpt lat="49.02912" lon="1.85">
        <ele>50</ele>
        <time>2019-03-04T10:40:50Z</time>
      </trkpt>
      <trkpt lat="49.02956" lon="1.84794">
        <ele>54</ele>
        <time>2019-03-04T10:41:50Z</time>
      </trkpt>
      <trkpt lat="49.02965" lon="1.84712">
        <ele>54</ele>
        <time>2019-03-04T10:42:50Z</time>
      </trkpt>
      <trkpt lat="49.0296" lon="1.8457">
        <ele>54</ele>
        <time>2019-03-04T10:43:50Z</time>
      </trkpt>
      <trkpt lat="49.02941" lon="1.84466">
        <ele>54</ele>
        <time>2019-03-04T10:44:50Z</time>
      </trkpt>
      <trkpt lat="49.02966" lon="1.84446">
        <ele>52</ele>
        <time>2019-03-04T10:45:50Z</time>
      </trkpt>
      <trkpt lat="49.03009" lon="1.84378">
        <ele>53</ele>
        <time>2019-03-04T10:46:50Z</time>
      </trkpt>
      <trkpt lat="49.02981" lon="1.8424">
        <ele>56</ele>
        <time>2019-03-04T10:47:50Z</time>
      </trkpt>
      <trkpt lat="49.02977" lon="1.84164">
        <ele>59</ele>
        <time>2019-03-04T10:48:50Z</time>
      </trkpt>
      <trkpt lat="49.02996" lon="1.83993">
        <ele>61</ele>
        <time>2019-03-04T10:49:50Z</time>
      </trkpt>
      <trkpt lat="49.02872" lon="1.83971">
        <ele>67</ele>
        <time>2019-03-04T10:50:50Z</time>
      </trkpt>
      <trkpt lat="49.0284" lon="1.83887">
        <ele>71</ele>
        <time>2019-03-04T10:51:50Z</time>
      </trkpt>
      <trkpt lat="49.02783" lon="1.83868">
        <ele>76</ele>
        <time>2019-03-04T10:52:50Z</time>
      </trkpt>
      <trkpt lat="49.02805" lon="1.83742">
        <ele>75</ele>
        <time>2019-03-04T10:53:50Z</time>
      </trkpt>
      <trkpt lat="49.02796" lon="1.83701">
        <ele>76</ele>
        <time>2019-03-04T10:54:50Z</time>
      </trkpt>
      <trkpt lat="49.02746" lon="1.83692">
        <ele>86</ele>
        <time>2019-03-04T10:55:50Z</time>
      </trkpt>
      <trkpt lat="49.02728" lon="1.83659">
        <ele>91</ele>
        <time>2019-03-04T10:56:50Z</time>
      </trkpt>
      <trkpt lat="49.02708" lon="1.83539">
        <ele>90</ele>
        <time>2019-03-04T10:57:50Z</time>
      </trkpt>
      <trkpt lat="49.02693" lon="1.83499">
        <ele>89</ele>
        <time>2019-03-04T10:58:50Z</time>
      </trkpt>
      <trkpt lat="49.02663" lon="1.8347">
        <ele>90</ele>
        <time>2019-03-04T10:59:50Z</time>
      </trkpt>
      <trkpt lat="49.02507" lon="1.83392">
        <ele>96</ele>
        <time>2019-03-04T11:00:50Z</time>
      </trkpt>
      <trkpt lat="49.02459" lon="1.8337">
        <ele>101</ele>
        <time>2019-03-04T11:01:50Z</time>
      </trkpt>
      <trkpt lat="49.0242" lon="1.83177">
        <ele>95</ele>
        <time>2019-03-04T11:02:50Z</time>
      </trkpt>
      <trkpt lat="49.02275" lon="1.83122">
        <ele>112</ele>
        <time>2019-03-04T11:03:50Z</time>
      </trkpt>
      <trkpt lat="49.0224" lon="1.83131">
        <ele>113</ele>
        <time>2019-03-04T11:04:50Z</time>
      </trkpt>
      <trkpt lat="49.02247" lon="1.83041">
        <ele>119</ele>
        <time>2019-03-04T11:05:50Z</time>
      </trkpt>
      <trkpt lat="49.02233" lon="1.82963">
        <ele>122</ele>
        <time>2019-03-04T11:06:50Z</time>
      </trkpt>
      <trkpt lat="49.02236" lon="1.82849">
        <ele>120</ele>
        <time>2019-03-04T11:07:50Z</time>
      </trkpt>
      <trkpt lat="49.02363" lon="1.82857">
        <ele>120</ele>
        <time>2019-03-04T11:08:50Z</time>
      </trkpt>
      <trkpt lat="49.02429" lon="1.82891">
        <ele>116</ele>
        <time>2019-03-04T11:09:50Z</time>
      </trkpt>
      <trkpt lat="49.02444" lon="1.82821">
        <ele>114</ele>
        <time>2019-03-04T11:10:50Z</time>
      </trkpt>
      <trkpt lat="49.02581" lon="1.82495">
        <ele>113</ele>
        <time>2019-03-04T11:11:50Z</time>
      </trkpt>
      <trkpt lat="49.02636" lon="1.82301">
        <ele>107</ele>
        <time>2019-03-04T11:12:50Z</time>
      </trkpt>
      <trkpt lat="49.02643" lon="1.82229">
        <ele>101</ele>
        <time>2019-03-04T11:13:50Z</time>
      </trkpt>
      <trkpt lat="49.02643" lon="1.82186">
        <ele>98</ele>
        <time>2019-03-04T11:14:50Z</time>
      </trkpt>
      <trkpt lat="49.02631" lon="1.82128">
        <ele>95</ele>
        <time>2019-03-04T11:15:50Z</time>
      </trkpt>
      <trkpt lat="49.02617" lon="1.8199">
        <ele>89</ele>
        <time>2019-03-04T11:16:50Z</time>
      </trkpt>
      <trkpt lat="49.02668" lon="1.81915">
        <ele>83</ele>
        <time>2019-03-04T11:17:50Z</time>
      </trkpt>
      <trkpt lat="49.02727" lon="1.8192">
        <ele>84</ele>
        <time>2019-03-04T11:18:50Z</time>
      </trkpt>
      <trkpt lat="49.02762" lon="1.818">
        <ele>98</ele>
        <time>2019-03-04T11:19:50Z</time>
      </trkpt>
      <trkpt lat="49.02815" lon="1.81769">
        <ele>103</ele>
        <time>2019-03-04T11:20:50Z</time>
      </trkpt>
      <trkpt lat="49.02827" lon="1.81742">
        <ele>107</ele>
        <time>2019-03-04T11:21:50Z</time>
      </trkpt>
      <trkpt lat="49.02837" lon="1.81699">
        <ele>109</ele>
        <time>2019-03-04T11:22:50Z</time>
      </trkpt>
      <trkpt lat="49.02838" lon="1.8167">
        <ele>111</ele>
        <time>2019-03-04T11:23:50Z</time>
      </trkpt>
      <trkpt lat="49.02886" lon="1.8157">
        <ele>102</ele>
        <time>2019-03-04T11:24:50Z</time>
      </trkpt>
      <trkpt lat="49.02927" lon="1.8151">
        <ele>100</ele>
        <time>2019-03-04T11:25:50Z</time>
      </trkpt>
      <trkpt lat="49.03005" lon="1.81583">
        <ele>88</ele>
        <time>2019-03-04T11:26:50Z</time>
      </trkpt>
      <trkpt lat="49.03037" lon="1.81582">
        <ele>86</ele>
        <time>2019-03-04T11:27:50Z</time>
      </trkpt>
      <trkpt lat="49.03223" lon="1.81767">
        <ele>88</ele>
        <time>2019-03-04T11:28:50Z</time>
      </trkpt>
      <trkpt lat="49.03291" lon="1.81638">
        <ele>94</ele>
        <time>2019-03-04T11:29:50Z</time>
      </trkpt>
      <trkpt lat="49.03343" lon="1.81637">
        <ele>97</ele>
        <time>2019-03-04T11:30:50Z</time>
      </trkpt>
      <trkpt lat="49.03373" lon="1.81606">
        <ele>98</ele>
        <time>2019-03-04T11:31:50Z</time>
      </trkpt>
      <trkpt lat="49.03457" lon="1.81616">
        <ele>105</ele>
        <time>2019-03-04T11:32:50Z</time>
      </trkpt>
      <trkpt lat="49.03506" lon="1.81591">
        <ele>108</ele>
        <time>2019-03-04T11:33:50Z</time>
      </trkpt>
      <trkpt lat="49.03589" lon="1.81469">
        <ele>117</ele>
        <time>2019-03-04T11:34:50Z</time>
      </trkpt>
      <trkpt lat="49.03712" lon="1.81341">
        <ele>123</ele>
        <time>2019-03-04T11:35:50Z</time>
      </trkpt>
      <trkpt lat="49.03772" lon="1.813">
        <ele>124</ele>
        <time>2019-03-04T11:36:50Z</time>
      </trkpt>
      <trkpt lat="49.0385" lon="1.81268">
        <ele>125</ele>
        <time>2019-03-04T11:37:50Z</time>
      </trkpt>
      <trkpt lat="49.03954" lon="1.81168">
        <ele>126</ele>
        <time>2019-03-04T11:38:50Z</time>
      </trkpt>
      <trkpt lat="49.03997" lon="1.81158">
        <ele>127</ele>
        <time>2019-03-04T11:39:50Z</time>
      </trkpt>
      <trkpt lat="49.04063" lon="1.81208">
        <ele>128</ele>
        <time>2019-03-04T11:40:50Z</time>
      </trkpt>
      <trkpt lat="49.04282" lon="1.81252">
        <ele>136</ele>
        <time>2019-03-04T11:41:50Z</time>
      </trkpt>
      <trkpt lat="49.04458" lon="1.81258">
        <ele>143</ele>
        <time>2019-03-04T11:42:50Z</time>
      </trkpt>
      <trkpt lat="49.04546" lon="1.8119">
        <ele>147</ele>
        <time>2019-03-04T11:43:50Z</time>
      </trkpt>
      <trkpt lat="49.04609" lon="1.81216">
        <ele>151</ele>
        <time>2019-03-04T11:44:50Z</time>
      </trkpt>
      <trkpt lat="49.04609" lon="1.81258">
        <ele>150</ele>
        <time>2019-03-04T11:45:50Z</time>
      </trkpt>
      <trkpt lat="49.04625" lon="1.81286">
        <ele>149</ele>
        <time>2019-03-04T11:46:50Z</time>
      </trkpt>
      <trkpt lat="49.04621" lon="1.81316">
        <ele>147</ele>
        <time>2019-03-04T11:47:50Z</time>
      </trkpt>
      <trkpt lat="49.04598" lon="1.81365">
        <ele>143</ele>
        <time>2019-03-04T11:48:50Z</time>
      </trkpt>
      <trkpt lat="49.04591" lon="1.81399">
        <ele>141</ele>
        <time>2019-03-04T11:49:50Z</time>
      </trkpt>
      <trkpt lat="49.04582" lon="1.81513">
        <ele>135</ele>
        <time>2019-03-04T11:50:50Z</time>
      </trkpt>
      <trkpt lat="49.04632" lon="1.81726">
        <ele>120</ele>
        <time>2019-03-04T11:51:50Z</time>
      </trkpt>
      <trkpt lat="49.04638" lon="1.8181">
        <ele>116</ele>
        <time>2019-03-04T11:52:50Z</time>
      </trkpt>
      <trkpt lat="49.04588" lon="1.82083">
        <ele>107</ele>
        <time>2019-03-04T11:53:50Z</time>
      </trkpt>
      <trkpt lat="49.04598" lon="1.82158">
        <ele>104</ele>
        <time>2019-03-04T11:54:50Z</time>
      </trkpt>
      <trkpt lat="49.04579" lon="1.82229">
        <ele>99</ele>
        <time>2019-03-04T11:55:50Z</time>
      </trkpt>
      <trkpt lat="49.04611" lon="1.82331">
        <ele>91</ele>
        <time>2019-03-04T11:56:50Z</time>
      </trkpt>
      <trkpt lat="49.04431" lon="1.82391">
        <ele>88</ele>
        <time>2019-03-04T11:57:50Z</time>
      </trkpt>
      <trkpt lat="49.04242" lon="1.82428">
        <ele>88</ele>
        <time>2019-03-04T11:58:50Z</time>
      </trkpt>
      <trkpt lat="49.04052" lon="1.82508">
        <ele>83</ele>
        <time>2019-03-04T11:59:50Z</time>
      </trkpt>
      <trkpt lat="49.03957" lon="1.82814">
        <ele>77</ele>
        <time>2019-03-04T12:00:50Z</time>
      </trkpt>
      <trkpt lat="49.03918" lon="1.82925">
        <ele>76</ele>
        <time>2019-03-04T12:01:50Z</time>
      </trkpt>
      <trkpt lat="49.0391" lon="1.83022">
        <ele>72</ele>
        <time>2019-03-04T12:02:50Z</time>
      </trkpt>
      <trkpt lat="49.039" lon="1.83062">
        <ele>72</ele>
        <time>2019-03-04T12:03:50Z</time>
      </trkpt>
      <trkpt lat="49.03881" lon="1.83087">
        <ele>72</ele>
        <time>2019-03-04T12:04:50Z</time>
      </trkpt>
      <trkpt lat="49.03849" lon="1.83185">
        <ele>71</ele>
        <time>2019-03-04T12:05:50Z</time>
      </trkpt>
      <trkpt lat="49.03836" lon="1.83265">
        <ele>72</ele>
        <time>2019-03-04T12:06:50Z</time>
      </trkpt>
      <trkpt lat="49.03858" lon="1.83284">
        <ele>72</ele>
        <time>2019-03-04T12:07:50Z</time>
      </trkpt>
      <trkpt lat="49.0385" lon="1.83319">
        <ele>72</ele>
        <time>2019-03-04T12:08:50Z</time>
      </trkpt>
      <trkpt lat="49.03854" lon="1.8336">
        <ele>71</ele>
        <time>2019-03-04T12:09:50Z</time>
      </trkpt>
      <trkpt lat="49.0381" lon="1.83345">
        <ele>72</ele>
        <time>2019-03-04T12:10:50Z</time>
      </trkpt>
      <trkpt lat="49.03784" lon="1.83353">
        <ele>74</ele>
        <time>2019-03-04T12:11:50Z</time>
      </trkpt>
      <trkpt lat="49.03716" lon="1.83686">
        <ele>70</ele>
        <time>2019-03-04T12:12:50Z</time>
      </trkpt>
      <trkpt lat="49.03692" lon="1.83892">
        <ele>69</ele>
        <time>2019-03-04T12:13:50Z</time>
      </trkpt>
      <trkpt lat="49.03696" lon="1.842">
        <ele>68</ele>
        <time>2019-03-04T12:14:50Z</time>
      </trkpt>
      <trkpt lat="49.03705" lon="1.84242">
        <ele>66</ele>
        <time>2019-03-04T12:15:50Z</time>
      </trkpt>
      <trkpt lat="49.03684" lon="1.84364">
        <ele>62</ele>
        <time>2019-03-04T12:16:50Z</time>
      </trkpt>
      <trkpt lat="49.03707" lon="1.84431">
        <ele>59</ele>
        <time>2019-03-04T12:17:50Z</time>
      </trkpt>
      <trkpt lat="49.03702" lon="1.84509">
        <ele>57</ele>
        <time>2019-03-04T12:18:50Z</time>
      </trkpt>
      <trkpt lat="49.03653" lon="1.84775">
        <ele>56</ele>
        <time>2019-03-04T12:19:50Z</time>
      </trkpt>
      <trkpt lat="49.03557" lon="1.8493">
        <ele>59</ele>
        <time>2019-03-04T12:20:50Z</time>
      </trkpt>
      <trkpt lat="49.034" lon="1.85081">
        <ele>79</ele>
        <time>2019-03-04T12:21:50Z</time>
      </trkpt>
      <trkpt lat="49.03321" lon="1.852">
        <ele>84</ele>
        <time>2019-03-04T12:22:50Z</time>
      </trkpt>
      <trkpt lat="49.03316" lon="1.8525">
        <ele>83</ele>
        <time>2019-03-04T12:23:50Z</time>
      </trkpt>
      <trkpt lat="49.03249" lon="1.85538">
        <ele>83</ele>
        <time>2019-03-04T12:24:50Z</time>
      </trkpt>
      <trkpt lat="49.03238" lon="1.85668">
        <ele>81</ele>
        <time>2019-03-04T12:25:50Z</time>
      </trkpt>
      <trkpt lat="49.03243" lon="1.85841">
        <ele>80</ele>
        <time>2019-03-04T12:26:50Z</time>
      </trkpt>
      <trkpt lat="49.03231" lon="1.86005">
        <ele>76</ele>
        <time>2019-03-04T12:27:50Z</time>
      </trkpt>
      <trkpt lat="49.03206" lon="1.86245">
        <ele>66</ele>
        <time>2019-03-04T12:28:50Z</time>
      </trkpt>
      <trkpt lat="49.0321" lon="1.86301">
        <ele>64</ele>
        <time>2019-03-04T12:29:50Z</time>
      </trkpt>
      <trkpt lat="49.03276" lon="1.8642">
        <ele>58</ele>
        <time>2019-03-04T12:30:50Z</time>
      </trkpt>
      <trkpt lat="49.03318" lon="1.86463">
        <ele>53</ele>
        <time>2019-03-04T12:31:50Z</time>
      </trkpt>
      <trkpt lat="49.03382" lon="1.86498">
        <ele>43</ele>
        <time>2019-03-04T12:32:50Z</time>
      </trkpt>
      <trkpt lat="49.03454" lon="1.86549">
        <ele>39</ele>
        <time>2019-03-04T12:33:50Z</time>
      </trkpt>
      <trkpt lat="49.0348" lon="1.86532">
        <ele>39</ele>
        <time>2019-03-04T12:34:50Z</time>
      </trkpt>
      <trkpt lat="49.03498" lon="1.86533">
        <ele>39</ele>
        <time>2019-03-04T12:35:50Z</time>
      </trkpt>
      <trkpt lat="49.03552" lon="1.86643">
        <ele>40</ele>
        <time>2019-03-04T12:36:50Z</time>
      </trkpt>
      <trkpt lat="49.03498" lon="1.86538">
        <ele>39</ele>
        <time>2019-03-04T12:37:50Z</time>
      </trkpt>
      <trkpt lat="49.03477" lon="1.8653">
        <ele>39</ele>
        <time>2019-03-04T12:38:50Z</time>
      </trkpt>
      <trkpt lat="49.0345" lon="1.86551">
        <ele>38</ele>
        <time>2019-03-04T12:39:50Z</time>
      </trkpt>
      <trkpt lat="49.03381" lon="1.865">
        <ele>43</ele>
        <time>2019-03-04T12:40:50Z</time>
      </trkpt>
      <trkpt lat="49.03316" lon="1.86465">
        <ele>53</ele>
        <time>2019-03-04T12:41:50Z</time>
      </trkpt>
      <trkpt lat="49.03274" lon="1.86414">
        <ele>59</ele>
        <time>2019-03-04T12:42:50Z</time>
      </trkpt>
      <trkpt lat="49.0321" lon="1.86304">
        <ele>64</ele>
        <time>2019-03-04T12:43:50Z</time>
      </trkpt>
      <trkpt lat="49.03217" lon="1.86461">
        <ele>59</ele>
        <time>2019-03-04T12:44:50Z</time>
      </trkpt>
      <trkpt lat="49.03186" lon="1.86502">
        <ele>57</ele>
        <time>2019-03-04T12:45:50Z</time>
      </trkpt>
      <trkpt lat="49.0317" lon="1.86545">
        <ele>54</ele>
        <time>2019-03-04T12:46:50Z</time>
      </trkpt>
      <trkpt lat="49.03153" lon="1.86614">
        <ele>49</ele>
        <time>2019-03-04T12:47:50Z</time>
      </trkpt>
      <trkpt lat="49.03117" lon="1.86687">
        <ele>44</ele>
        <time>2019-03-04T12:48:50Z</time>
      </trkpt>
      <trkpt lat="49.03085" lon="1.86718">
        <ele>43</ele>
        <time>2019-03-04T12:49:50Z</time>
      </trkpt>
      <trkpt lat="49.03064" lon="1.86671">
        <ele>42</ele>
        <time>2019-03-04T12:50:50Z</time>
      </trkpt>
      <trkpt lat="49.03053" lon="1.86605">
        <ele>41</ele>
        <time>2019-03-04T12:51:50Z</time>
      </trkpt>
      <trkpt lat="49.0305" lon="1.86413">
        <ele>41</ele>
        <time>2019-03-04T12:52:50Z</time>
      </trkpt>
      <trkpt lat="49.03026" lon="1.86282">
        <ele>42</ele>
        <time>2019-03-04T12:53:50Z</time>
      </trkpt>
      <trkpt lat="49.02995" lon="1.86231">
        <ele>39</ele>
        <time>2019-03-04T12:54:50Z</time>
      </trkpt>
      <trkpt lat="49.02946" lon="1.8604">
        <ele>45</ele>
        <time>2019-03-04T12:55:50Z</time>
      </trkpt>
      <trkpt lat="49.02933" lon="1.86004">
        <ele>44</ele>
        <time>2019-03-04T12:56:50Z</time>
      </trkpt>
      <trkpt lat="49.02924" lon="1.85335">
        <ele>47</ele>
        <time>2019-03-04T12:57:50Z</time>
      </trkpt>
      <trkpt lat="49.0292" lon="1.85319">
        <ele>46</ele>
        <time>2019-03-04T12:58:50Z</time>
      </trkpt>
      <trkpt lat="49.02902" lon="1.85351">
        <ele>46</ele>
        <time>2019-03-04T12:59:50Z</time>
      </trkpt>
      <trkpt lat="49.02894" lon="1.85315">
        <ele>47</ele>
        <time>2019-03-04T13:00:50Z</time>
      </trkpt>
      <trkpt lat="49.0287" lon="1.85279">
        <ele>48</ele>
        <time>2019-03-04T13:01:50Z</time>
      </trkpt>
    </trkseg>
  </trk>
</gpx>